createdAt,value
2017-10-23T00:01:19.159Z,10.30
2017-10-23T00:03:48.016Z,10.30
2017-10-23T00:06:16.939Z,10.20
2017-10-23T00:08:46.542Z,10.20
2017-10-23T00:11:16.160Z,10.20
2017-10-23T00:13:45.758Z,10.20
2017-10-23T00:16:14.687Z,10.20
2017-10-23T00:18:43.534Z,10.20
2017-10-23T00:21:12.380Z,10.20
2017-10-23T00:23:41.218Z,10.10
2017-10-23T00:26:10.834Z,10.20
2017-10-23T00:28:40.435Z,10.20
2017-10-23T00:31:10.067Z,10.20
2017-10-23T00:33:39.666Z,10.20
2017-10-23T00:36:10.113Z,10.10
2017-10-23T00:38:38.962Z,10.10
2017-10-23T00:41:07.811Z,10.10
2017-10-23T00:43:36.943Z,10.20
2017-10-23T00:46:05.786Z,10.20
2017-10-23T00:48:35.220Z,10.20
2017-10-23T00:51:04.055Z,10.20
2017-10-23T00:53:33.677Z,10.30
2017-10-23T00:56:02.593Z,10.20
2017-10-23T00:58:30.743Z,10.20
2017-10-23T01:01:00.334Z,10.20
2017-10-23T01:03:29.414Z,10.20
2017-10-23T01:05:58.262Z,10.30
2017-10-23T01:08:27.100Z,10.30
2017-10-23T01:10:55.599Z,10.30
2017-10-23T01:13:24.448Z,10.30
2017-10-23T01:15:53.296Z,10.30
2017-10-23T01:18:22.939Z,10.30
2017-10-23T01:20:51.106Z,10.30
2017-10-23T01:23:19.762Z,10.30
2017-10-23T01:25:49.174Z,10.30
2017-10-23T01:28:17.687Z,10.30
2017-10-23T01:30:45.895Z,10.30
2017-10-23T01:33:14.071Z,10.30
2017-10-23T01:35:43.463Z,10.30
2017-10-23T01:38:11.638Z,10.30
2017-10-23T01:40:39.792Z,10.30
2017-10-23T01:43:07.934Z,10.30
2017-10-23T01:45:36.101Z,10.30
2017-10-23T01:48:05.692Z,10.30
2017-10-23T01:50:35.075Z,10.30
2017-10-23T01:53:04.243Z,10.30
2017-10-23T01:55:33.936Z,10.30
2017-10-23T01:58:02.837Z,10.20
2017-10-23T02:00:31.352Z,10.20
2017-10-23T02:03:00.195Z,10.20
2017-10-23T02:05:28.362Z,10.30
2017-10-23T02:07:57.253Z,10.30
2017-10-23T02:10:25.438Z,10.30
2017-10-23T02:12:54.320Z,10.30
2017-10-23T02:15:23.186Z,10.20
2017-10-23T02:17:52.026Z,10.20
2017-10-23T02:20:20.842Z,10.30
2017-10-23T02:22:49.690Z,10.30
2017-10-23T02:25:18.539Z,10.30
2017-10-23T02:27:47.382Z,10.30
2017-10-23T02:30:18.805Z,10.30
2017-10-23T02:32:48.410Z,10.30
2017-10-23T02:35:18.028Z,10.30
2017-10-23T02:37:46.887Z,10.30
2017-10-23T02:40:15.749Z,10.30
2017-10-23T02:42:44.956Z,10.20
2017-10-23T02:45:13.805Z,10.20
2017-10-23T02:47:42.657Z,10.20
2017-10-23T02:50:11.171Z,10.20
2017-10-23T02:52:41.311Z,10.20
2017-10-23T02:55:10.184Z,10.20
2017-10-23T02:57:40.336Z,10.20
2017-10-23T03:00:09.204Z,10.20
2017-10-23T03:02:38.380Z,10.30
2017-10-23T03:08:38.830Z,10.30
2017-10-23T03:11:08.851Z,10.20
2017-10-23T03:13:37.790Z,10.20
2017-10-23T03:16:05.945Z,10.20
2017-10-23T03:18:34.443Z,10.20
2017-10-23T03:21:02.599Z,10.20
2017-10-23T03:23:30.757Z,10.20
2017-10-23T03:25:59.683Z,10.20
2017-10-23T03:28:27.859Z,10.20
2017-10-23T03:30:56.364Z,10.10
2017-10-23T03:33:24.874Z,10.10
2017-10-23T03:35:53.044Z,10.10
2017-10-23T03:38:21.556Z,10.10
2017-10-23T03:40:51.024Z,10.10
2017-10-23T03:43:19.258Z,10.10
2017-10-23T03:45:49.141Z,10.10
2017-10-23T03:48:18.067Z,10.10
2017-10-23T03:50:46.569Z,10.10
2017-10-23T03:53:15.401Z,10.10
2017-10-23T03:55:45.009Z,10.10
2017-10-23T03:58:14.733Z,10.10
2017-10-23T04:00:44.049Z,10.10
2017-10-23T04:03:12.539Z,10.00
2017-10-23T04:05:42.024Z,10.00
2017-10-23T04:08:10.951Z,10.00
2017-10-23T04:10:39.123Z,10.00
2017-10-23T04:13:07.812Z,10.00
2017-10-23T04:15:36.945Z,10.00
2017-10-23T04:18:05.099Z,10.00
2017-10-23T04:20:33.443Z,10.00
2017-10-23T04:23:01.399Z,9.90
2017-10-23T04:25:29.589Z,10.00
2017-10-23T04:27:58.099Z,9.90
2017-10-23T04:30:26.247Z,10.00
2017-10-23T04:32:54.774Z,10.00
2017-10-23T04:35:23.628Z,10.00
2017-10-23T04:37:52.158Z,10.00
2017-10-23T04:40:20.314Z,10.00
2017-10-23T04:42:48.839Z,10.00
2017-10-23T04:45:18.117Z,10.10
2017-10-23T04:47:46.618Z,10.10
2017-10-23T04:50:15.974Z,10.10
2017-10-23T04:52:45.629Z,10.10
2017-10-23T04:55:15.095Z,10.10
2017-10-23T04:57:44.447Z,10.10
2017-10-23T05:00:13.962Z,10.10
2017-10-23T05:02:42.122Z,10.10
2017-10-23T05:05:11.055Z,10.10
2017-10-23T05:07:39.224Z,10.10
2017-10-23T05:10:07.386Z,10.10
2017-10-23T05:12:37.365Z,10.10
2017-10-23T05:15:05.538Z,10.10
2017-10-23T05:17:34.046Z,10.20
2017-10-23T05:20:03.732Z,10.20
2017-10-23T05:22:31.886Z,10.20
2017-10-23T05:25:00.409Z,10.20
2017-10-23T05:27:29.332Z,10.20
2017-10-23T05:29:57.512Z,10.20
2017-10-23T05:32:25.706Z,10.20
2017-10-23T05:34:55.473Z,10.20
2017-10-23T05:37:23.994Z,10.20
2017-10-23T05:39:52.879Z,10.20
2017-10-23T05:42:23.015Z,10.20
2017-10-23T05:44:52.091Z,10.20
2017-10-23T05:47:20.610Z,10.20
2017-10-23T05:49:49.358Z,10.10
2017-10-23T05:52:18.407Z,10.20
2017-10-23T05:54:46.927Z,10.20
2017-10-23T05:57:15.474Z,10.20
2017-10-23T05:59:44.019Z,10.20
2017-10-23T06:02:12.890Z,10.20
2017-10-23T06:04:41.057Z,10.20
2017-10-23T06:07:09.751Z,10.30
2017-10-23T06:09:37.735Z,10.30
2017-10-23T06:12:05.887Z,10.30
2017-10-23T06:14:35.074Z,10.30
2017-10-23T06:17:03.579Z,10.30
2017-10-23T06:19:31.551Z,10.30
2017-10-23T06:21:59.765Z,10.30
2017-10-23T06:24:36.405Z,10.30
2017-10-23T06:27:05.518Z,10.30
2017-10-23T06:29:33.854Z,10.30
2017-10-23T06:32:02.043Z,10.30
2017-10-23T06:34:30.834Z,10.30
2017-10-23T06:36:59.339Z,10.30
2017-10-23T06:39:27.847Z,10.30
2017-10-23T06:41:57.326Z,10.30
2017-10-23T06:44:26.706Z,10.30
2017-10-23T06:46:54.884Z,10.30
2017-10-23T06:49:24.870Z,10.30
2017-10-23T06:51:54.158Z,10.30
2017-10-23T06:54:22.710Z,10.30
2017-10-23T06:56:50.892Z,10.30
2017-10-23T06:59:19.424Z,10.30
2017-10-23T07:01:49.027Z,10.30
2017-10-23T07:04:17.539Z,10.30
2017-10-23T07:06:45.740Z,10.30
2017-10-23T07:09:13.917Z,10.30
2017-10-23T07:11:42.708Z,10.30
2017-10-23T07:14:10.892Z,10.30
2017-10-23T07:16:42.362Z,10.30
2017-10-23T07:19:10.876Z,10.40
2017-10-23T07:21:40.060Z,10.40
2017-10-23T07:24:09.350Z,10.40
2017-10-23T07:26:38.979Z,10.40
2017-10-23T07:29:07.142Z,10.40
2017-10-23T07:31:36.754Z,10.50
2017-10-23T07:34:06.365Z,10.50
2017-10-23T07:36:36.008Z,10.50
2017-10-23T07:39:08.031Z,10.50
2017-10-23T07:41:37.695Z,10.50
2017-10-23T07:44:06.583Z,10.50
2017-10-23T07:46:35.141Z,10.50
2017-10-23T07:49:05.319Z,10.60
2017-10-23T07:51:34.199Z,10.60
2017-10-23T07:54:03.076Z,10.60
2017-10-23T07:56:33.776Z,10.60
2017-10-23T07:59:03.381Z,10.70
2017-10-23T08:01:32.294Z,10.70
2017-10-23T08:04:01.180Z,10.70
2017-10-23T08:06:30.079Z,10.70
2017-10-23T08:08:58.966Z,10.70
2017-10-23T08:11:27.833Z,10.70
2017-10-23T08:13:57.447Z,10.70
2017-10-23T08:16:26.140Z,10.70
2017-10-23T08:18:55.774Z,10.70
2017-10-23T08:21:24.622Z,10.70
2017-10-23T08:23:54.899Z,10.80
2017-10-23T08:26:24.619Z,10.80
2017-10-23T08:28:54.031Z,10.80
2017-10-23T08:31:23.683Z,10.80
2017-10-23T08:33:53.295Z,10.90
2017-10-23T08:36:23.121Z,10.90
2017-10-23T08:38:52.087Z,10.90
2017-10-23T08:41:21.713Z,11.00
2017-10-23T08:43:50.563Z,10.90
2017-10-23T08:46:19.416Z,11.00
2017-10-23T08:48:48.323Z,11.10
2017-10-23T08:51:17.340Z,11.10
2017-10-23T08:53:46.180Z,11.20
2017-10-23T08:56:15.521Z,11.20
2017-10-23T08:58:45.089Z,11.30
2017-10-23T09:01:13.246Z,11.40
2017-10-23T09:03:42.880Z,11.50
2017-10-23T09:06:11.714Z,11.40
2017-10-23T09:08:40.555Z,11.50
2017-10-23T09:11:10.215Z,11.50
2017-10-23T09:13:38.932Z,11.60
2017-10-23T09:16:08.375Z,11.70
2017-10-23T09:18:37.038Z,11.70
2017-10-23T09:21:05.706Z,11.70
2017-10-23T09:23:34.850Z,11.80
2017-10-23T09:26:04.118Z,11.80
2017-10-23T09:28:32.979Z,11.80
2017-10-23T09:31:02.707Z,11.80
2017-10-23T09:33:31.218Z,11.70
2017-10-23T09:38:33.046Z,11.70
2017-10-23T09:41:04.062Z,11.60
2017-10-23T09:43:32.898Z,11.60
2017-10-23T09:46:02.547Z,11.70
2017-10-23T09:48:31.652Z,11.70
2017-10-23T09:51:02.166Z,11.70
2017-10-23T09:53:31.038Z,11.70
2017-10-23T09:56:01.346Z,11.40
2017-10-23T09:58:30.959Z,11.40
2017-10-23T10:01:00.567Z,11.30
2017-10-23T10:03:30.187Z,11.20
2017-10-23T10:05:59.791Z,11.20
2017-10-23T10:08:28.350Z,11.20
2017-10-23T10:10:57.206Z,11.20
2017-10-23T10:13:26.291Z,11.10
2017-10-23T10:15:56.814Z,11.00
2017-10-23T10:18:29.064Z,11.00
2017-10-23T10:20:59.259Z,11.10
2017-10-23T10:26:03.924Z,11.10
2017-10-23T10:28:33.567Z,11.10
2017-10-23T10:31:03.568Z,11.10
2017-10-23T10:33:32.436Z,11.10
2017-10-23T10:36:14.392Z,11.10
2017-10-23T10:38:47.532Z,11.10
2017-10-23T10:41:17.160Z,11.20
2017-10-23T10:43:46.010Z,11.10
2017-10-23T10:46:14.897Z,11.20
2017-10-23T10:48:44.463Z,11.20
2017-10-23T10:51:13.303Z,11.30
2017-10-23T10:53:42.806Z,11.30
2017-10-23T10:56:11.308Z,11.30
2017-10-23T10:58:40.229Z,11.30
2017-10-23T11:01:09.774Z,11.30
2017-10-23T11:03:39.108Z,11.30
2017-10-23T11:06:09.127Z,11.20
2017-10-23T11:08:38.736Z,11.20
2017-10-23T11:11:08.580Z,11.20
2017-10-23T11:13:37.435Z,11.20
2017-10-23T11:16:07.065Z,11.20
2017-10-23T11:18:36.669Z,11.10
2017-10-23T11:21:06.269Z,11.10
2017-10-23T11:23:35.888Z,11.10
2017-10-23T11:26:04.743Z,11.10
2017-10-23T11:28:33.579Z,11.10
2017-10-23T11:31:02.927Z,11.10
2017-10-23T11:33:31.812Z,11.10
2017-10-23T11:36:00.660Z,11.10
2017-10-23T11:38:29.527Z,11.10
2017-10-23T11:40:58.379Z,11.10
2017-10-23T11:43:27.239Z,11.10
2017-10-23T11:45:57.017Z,11.10
2017-10-23T11:48:25.886Z,11.10
2017-10-23T11:50:54.736Z,11.10
2017-10-23T11:53:24.365Z,11.10
2017-10-23T11:55:53.219Z,11.10
2017-10-23T11:58:22.840Z,11.10
2017-10-23T12:00:51.683Z,11.10
2017-10-23T12:03:20.519Z,11.10
2017-10-23T12:05:49.362Z,11.10
2017-10-23T12:08:18.199Z,11.10
2017-10-23T12:10:47.038Z,11.10
2017-10-23T12:13:15.903Z,11.10
2017-10-23T12:15:44.425Z,11.10
2017-10-23T12:18:13.254Z,11.10
2017-10-23T12:20:42.117Z,11.10
2017-10-23T12:23:10.663Z,11.20
2017-10-23T12:25:39.512Z,11.20
2017-10-23T12:28:08.775Z,11.30
2017-10-23T12:30:37.639Z,11.20
2017-10-23T12:33:06.475Z,11.20
2017-10-23T12:35:35.322Z,11.20
2017-10-23T12:38:04.182Z,11.20
2017-10-23T12:40:32.367Z,11.10
2017-10-23T12:43:02.019Z,11.10
2017-10-23T12:45:30.889Z,11.10
2017-10-23T12:47:59.727Z,11.00
2017-10-23T12:50:28.599Z,11.00
2017-10-23T12:52:57.447Z,11.00
2017-10-23T12:55:26.312Z,11.00
2017-10-23T12:57:55.961Z,11.00
2017-10-23T13:00:24.802Z,11.00
2017-10-23T13:02:54.090Z,11.10
2017-10-23T13:05:25.543Z,11.10
2017-10-23T13:07:53.981Z,11.20
2017-10-23T13:10:23.722Z,11.20
2017-10-23T13:12:52.590Z,11.20
2017-10-23T13:15:21.497Z,11.20
2017-10-23T13:17:50.355Z,11.20
2017-10-23T13:20:19.212Z,11.20
2017-10-23T13:22:48.080Z,11.30
2017-10-23T13:25:16.937Z,11.30
2017-10-23T13:27:46.754Z,11.40
2017-10-23T13:30:16.196Z,11.40
2017-10-23T13:32:45.072Z,11.50
2017-10-23T13:35:13.945Z,11.50
2017-10-23T13:37:43.440Z,11.50
2017-10-23T13:40:12.307Z,11.60
2017-10-23T13:42:41.156Z,11.60
2017-10-23T13:45:10.816Z,11.60
2017-10-23T13:47:41.238Z,11.60
2017-10-23T13:50:11.155Z,11.60
2017-10-23T13:52:40.003Z,11.60
2017-10-23T13:55:09.298Z,11.70
2017-10-23T13:57:38.195Z,11.60
2017-10-23T14:00:07.834Z,11.60
2017-10-23T14:02:37.468Z,11.60
2017-10-23T14:05:07.402Z,11.60
2017-10-23T14:07:36.286Z,11.60
2017-10-23T14:10:05.152Z,11.60
2017-10-23T14:12:33.994Z,11.60
2017-10-23T14:15:02.840Z,11.50
2017-10-23T14:17:31.694Z,11.50
2017-10-23T14:20:00.655Z,11.40
2017-10-23T14:22:28.909Z,11.40
2017-10-23T14:24:57.074Z,11.40
2017-10-23T14:27:25.254Z,11.40
2017-10-23T14:29:54.196Z,11.50
2017-10-23T14:32:22.690Z,11.50
2017-10-23T14:34:53.887Z,11.50
2017-10-23T14:37:21.895Z,11.50
2017-10-23T14:39:51.516Z,11.50
2017-10-23T14:42:20.292Z,11.50
2017-10-23T14:44:48.332Z,11.50
2017-10-23T14:47:16.516Z,11.40
2017-10-23T14:49:44.724Z,11.40
2017-10-23T14:52:13.666Z,11.40
2017-10-23T14:54:41.839Z,11.40
2017-10-23T14:57:10.018Z,11.40
2017-10-23T14:59:38.197Z,11.40
2017-10-23T15:02:06.410Z,11.40
2017-10-23T15:04:35.275Z,11.40
2017-10-23T15:07:04.655Z,11.40
2017-10-23T15:09:33.532Z,11.50
2017-10-23T15:12:02.414Z,11.50
2017-10-23T15:14:30.611Z,11.50
2017-10-23T15:17:00.183Z,11.50
2017-10-23T15:19:29.493Z,11.50
2017-10-23T15:21:58.422Z,11.50
2017-10-23T15:24:27.771Z,11.50
2017-10-23T15:26:56.391Z,11.50
2017-10-23T15:29:25.720Z,11.50
2017-10-23T15:31:54.629Z,11.50
2017-10-23T15:34:23.742Z,11.60
2017-10-23T15:36:52.596Z,11.60
2017-10-23T15:39:21.470Z,11.60
2017-10-23T15:41:50.922Z,11.60
2017-10-23T15:44:19.843Z,11.70
2017-10-23T15:46:48.702Z,11.60
2017-10-23T15:49:18.189Z,11.70
2017-10-23T15:51:47.775Z,11.70
2017-10-23T15:54:16.456Z,11.60
2017-10-23T15:56:45.115Z,11.70
2017-10-23T15:59:14.735Z,11.70
2017-10-23T16:01:44.989Z,11.70
2017-10-23T16:04:13.883Z,11.70
2017-10-23T16:06:42.758Z,11.70
2017-10-23T16:09:12.376Z,11.70
2017-10-23T16:11:41.186Z,11.70
2017-10-23T16:16:46.503Z,11.70
2017-10-23T16:19:16.139Z,11.70
2017-10-23T16:21:44.986Z,11.60
2017-10-23T16:24:14.697Z,11.70
2017-10-23T16:26:43.630Z,11.70
2017-10-23T16:29:12.486Z,11.70
2017-10-23T16:31:42.111Z,11.70
2017-10-23T16:34:10.971Z,11.70
2017-10-23T16:36:40.529Z,11.70
2017-10-23T16:39:09.036Z,11.70
2017-10-23T16:41:37.910Z,11.70
2017-10-23T16:44:06.782Z,11.70
2017-10-23T16:46:36.616Z,11.70
2017-10-23T16:49:05.503Z,11.60
2017-10-23T16:51:34.397Z,11.60
2017-10-23T16:54:03.255Z,11.60
2017-10-23T16:56:32.891Z,11.60
2017-10-23T16:59:01.768Z,11.60
2017-10-23T17:01:33.373Z,11.60
2017-10-23T17:04:02.236Z,11.60
2017-10-23T17:06:31.095Z,11.60
2017-10-23T17:08:59.976Z,11.60
2017-10-23T17:11:28.825Z,11.60
2017-10-23T17:13:59.254Z,11.60
2017-10-23T17:16:28.892Z,11.60
2017-10-23T17:18:57.920Z,11.80
2017-10-23T17:21:26.343Z,12.00
2017-10-23T17:23:54.721Z,11.90
2017-10-23T17:26:23.407Z,11.80
2017-10-23T17:28:52.977Z,11.70
2017-10-23T17:31:21.886Z,11.70
2017-10-23T17:33:51.560Z,11.70
2017-10-23T17:36:20.515Z,11.70
2017-10-23T17:38:49.418Z,12.00
2017-10-23T17:41:18.263Z,12.50
2017-10-23T17:43:47.122Z,12.90
2017-10-23T17:46:16.731Z,13.20
2017-10-23T17:48:46.344Z,13.40
2017-10-23T17:51:15.987Z,13.50
2017-10-23T17:53:44.824Z,13.50
2017-10-23T17:56:13.663Z,13.60
2017-10-23T17:58:45.548Z,13.40
2017-10-23T18:01:14.403Z,13.30
2017-10-23T18:03:43.263Z,12.90
2017-10-23T18:06:12.128Z,12.70
2017-10-23T18:08:41.004Z,12.40
2017-10-23T18:11:09.854Z,12.30
2017-10-23T18:13:39.450Z,12.20
2017-10-23T18:16:09.054Z,12.20
2017-10-23T18:18:37.994Z,12.20
2017-10-23T18:21:06.886Z,12.10
2017-10-23T18:23:35.755Z,12.00
2017-10-23T18:26:04.603Z,11.90
2017-10-23T18:28:33.478Z,11.90
2017-10-23T18:31:02.365Z,11.90
2017-10-23T18:33:31.235Z,11.90
2017-10-23T18:36:00.117Z,11.90
2017-10-23T18:38:28.966Z,11.80
2017-10-23T18:40:58.314Z,11.80
2017-10-23T18:43:29.962Z,11.80
2017-10-23T18:45:58.835Z,11.70
2017-10-23T18:48:28.453Z,11.70
2017-10-23T18:50:58.740Z,11.70
2017-10-23T18:53:27.571Z,11.70
2017-10-23T18:55:57.178Z,11.60
2017-10-23T18:58:27.741Z,11.70
2017-10-23T19:00:57.499Z,11.60
2017-10-23T19:03:26.356Z,11.70
2017-10-23T19:05:54.923Z,11.60
2017-10-23T19:08:23.818Z,11.60
2017-10-23T19:10:52.973Z,11.60
2017-10-23T19:13:22.614Z,11.60
2017-10-23T19:15:51.559Z,11.60
2017-10-23T19:18:20.469Z,11.60
2017-10-23T19:20:51.142Z,11.50
2017-10-23T19:23:20.021Z,11.50
2017-10-23T19:25:48.905Z,11.50
2017-10-23T19:28:17.875Z,11.50
2017-10-23T19:30:47.504Z,11.50
2017-10-23T19:33:17.937Z,11.40
2017-10-23T19:35:46.501Z,11.40
2017-10-23T19:38:16.127Z,11.40
2017-10-23T19:40:44.723Z,11.30
2017-10-23T19:43:13.576Z,11.30
2017-10-23T19:45:43.213Z,11.30
2017-10-23T19:48:12.096Z,11.30
2017-10-23T19:50:40.967Z,11.30
2017-10-23T19:53:10.914Z,11.30
2017-10-23T19:55:41.388Z,11.30
2017-10-23T19:58:10.434Z,11.30
2017-10-23T20:00:38.785Z,11.30
2017-10-23T20:03:07.652Z,11.30
2017-10-23T20:05:36.506Z,11.30
2017-10-23T20:08:05.395Z,11.30
2017-10-23T20:10:34.250Z,11.30
2017-10-23T20:13:11.416Z,11.40
2017-10-23T20:15:40.287Z,11.30
2017-10-23T20:18:09.153Z,11.30
2017-10-23T20:20:38.344Z,11.30
2017-10-23T20:23:07.207Z,11.30
2017-10-23T20:25:36.063Z,11.20
2017-10-23T20:28:05.109Z,11.10
2017-10-23T20:30:34.735Z,11.10
2017-10-23T20:33:03.602Z,11.10
2017-10-23T20:35:33.223Z,11.00
2017-10-23T20:38:02.883Z,11.00
2017-10-23T20:40:32.019Z,11.00
2017-10-23T20:43:02.637Z,10.90
2017-10-23T20:45:31.379Z,10.90
2017-10-23T20:48:00.271Z,10.90
2017-10-23T20:50:29.182Z,10.90
2017-10-23T20:52:58.039Z,10.80
2017-10-23T20:55:26.907Z,11.30
2017-10-23T20:57:56.899Z,11.10
2017-10-23T21:00:25.755Z,11.00
2017-10-23T21:02:54.598Z,11.00
2017-10-23T21:05:23.471Z,10.90
2017-10-23T21:07:52.341Z,10.90
2017-10-23T21:10:23.641Z,10.80
2017-10-23T21:12:52.519Z,10.70
2017-10-23T21:15:22.137Z,10.70
2017-10-23T21:17:51.756Z,10.70
2017-10-23T21:20:30.388Z,10.70
2017-10-23T21:22:59.315Z,10.70
2017-10-23T21:25:28.202Z,10.60
2017-10-23T21:27:57.060Z,10.60
2017-10-23T21:30:26.095Z,10.60
2017-10-23T21:32:54.959Z,10.50
2017-10-23T21:35:23.805Z,10.60
2017-10-23T21:37:53.427Z,10.50
2017-10-23T21:40:23.020Z,10.40
2017-10-23T21:42:51.897Z,10.40
2017-10-23T21:45:20.784Z,10.30
2017-10-23T21:48:09.426Z,10.30
2017-10-23T21:50:39.931Z,10.30
2017-10-23T21:53:08.796Z,10.30
2017-10-23T21:55:37.476Z,10.30
2017-10-23T21:58:06.322Z,10.30
2017-10-23T22:00:35.194Z,10.30
2017-10-23T22:03:04.051Z,10.40
2017-10-23T22:05:34.199Z,10.40
2017-10-23T22:08:03.072Z,10.40
2017-10-23T22:10:31.944Z,10.30
2017-10-23T22:13:05.086Z,10.30
2017-10-23T22:15:34.643Z,10.30
2017-10-23T22:18:04.320Z,10.30
2017-10-23T22:20:34.237Z,10.30
2017-10-23T22:23:03.132Z,10.30
2017-10-23T22:25:32.013Z,10.30
2017-10-23T22:28:01.675Z,10.30
2017-10-23T22:34:59.361Z,10.20
2017-10-23T22:37:28.295Z,10.20
2017-10-23T22:40:00.727Z,10.30
2017-10-23T22:42:30.912Z,10.30
2017-10-23T22:45:00.579Z,10.20
2017-10-23T22:47:29.436Z,10.20
2017-10-23T22:49:58.299Z,10.30
2017-10-23T22:52:27.163Z,10.30
2017-10-23T22:54:56.044Z,10.40
2017-10-23T22:57:25.434Z,10.40
2017-10-23T22:59:55.054Z,10.40
2017-10-23T23:02:25.480Z,10.40
2017-10-23T23:04:54.369Z,10.40
2017-10-23T23:07:23.989Z,10.40
2017-10-23T23:09:53.324Z,10.40
2017-10-23T23:12:22.189Z,10.40
2017-10-23T23:14:51.070Z,10.40
2017-10-23T23:17:20.700Z,10.50
2017-10-23T23:19:50.155Z,10.40
2017-10-23T23:22:19.010Z,10.50
2017-10-23T23:24:47.679Z,10.50
2017-10-23T23:27:16.568Z,10.50
2017-10-23T23:29:45.458Z,10.40
2017-10-23T23:32:15.451Z,10.40
2017-10-23T23:34:45.654Z,10.50
2017-10-23T23:37:14.515Z,10.50
2017-10-23T23:39:44.227Z,10.50
2017-10-23T23:42:13.093Z,10.50
2017-10-23T23:44:41.986Z,10.50
2017-10-23T23:47:10.863Z,10.60
2017-10-23T23:49:39.719Z,10.60
2017-10-23T23:52:08.571Z,10.60
2017-10-23T23:54:37.430Z,10.70
2017-10-23T23:57:07.965Z,10.70
2017-10-23T23:59:36.815Z,10.70
